sensor_id;sensor_type;location;lat;lon;timestamp;temperature;humidity
23683;DHT22;24897;53.514;10.482;2022-07-23T00:01:11;16.90;99.90
23683;DHT22;24897;53.514;10.482;2022-07-23T00:03:55;16.90;99.90
23683;DHT22;24897;53.514;10.482;2022-07-23T00:06:40;16.80;99.90
23683;DHT22;24897;53.514;10.482;2022-07-23T00:09:24;16.90;99.90
23683;DHT22;24897;53.514;10.482;2022-07-23T00:12:08;17.00;99.90
23683;DHT22;24897;53.514;10.482;2022-07-23T00:14:53;17.00;99.90
23683;DHT22;24897;53.514;10.482;2022-07-23T00:17:37;17.00;99.90
23683;DHT22;24897;53.514;10.482;2022-07-23T00:20:21;17.00;99.90
23683;DHT22;24897;53.514;10.482;2022-07-23T00:25:50;17.00;99.90
23683;DHT22;24897;53.514;10.482;2022-07-23T00:28:35;17.00;99.90
23683;DHT22;24897;53.514;10.482;2022-07-23T00:31:19;16.90;99.90
23683;DHT22;24897;53.514;10.482;2022-07-23T00:34:03;17.10;99.90
23683;DHT22;24897;53.514;10.482;2022-07-23T00:36:47;16.80;99.90
23683;DHT22;24897;53.514;10.482;2022-07-23T00:39:31;17.40;99.90
23683;DHT22;24897;53.514;10.482;2022-07-23T00:42:18;16.90;99.90
23683;DHT22;24897;53.514;10.482;2022-07-23T00:45:03;17.10;99.90
23683;DHT22;24897;53.514;10.482;2022-07-23T00:47:48;16.80;99.90
23683;DHT22;24897;53.514;10.482;2022-07-23T00:50:33;17.10;99.90
23683;DHT22;24897;53.514;10.482;2022-07-23T00:53:19;16.80;99.90
23683;DHT22;24897;53.514;10.482;2022-07-23T00:56:04;16.60;99.90
23683;DHT22;24897;53.514;10.482;2022-07-23T00:58:49;16.80;99.90
23683;DHT22;24897;53.514;10.482;2022-07-23T01:01:34;16.80;99.90
23683;DHT22;24897;53.514;10.482;2022-07-23T01:04:18;16.80;99.90
23683;DHT22;24897;53.514;10.482;2022-07-23T01:09:47;15.30;99.90
23683;DHT22;24897;53.514;10.482;2022-07-23T01:12:32;16.50;99.90
23683;DHT22;24897;53.514;10.482;2022-07-23T01:15:16;16.30;99.90
23683;DHT22;24897;53.514;10.482;2022-07-23T01:18:01;16.60;99.90
23683;DHT22;24897;53.514;10.482;2022-07-23T01:20:45;17.20;99.90
23683;DHT22;24897;53.514;10.482;2022-07-23T01:23:29;16.60;99.90
23683;DHT22;24897;53.514;10.482;2022-07-23T01:26:14;16.70;99.90
23683;DHT22;24897;53.514;10.482;2022-07-23T01:29:01;16.50;99.90
23683;DHT22;24897;53.514;10.482;2022-07-23T01:31:45;17.30;99.90
23683;DHT22;24897;53.514;10.482;2022-07-23T01:34:29;16.50;99.90
23683;DHT22;24897;53.514;10.482;2022-07-23T01:39:57;16.50;99.90
23683;DHT22;24897;53.514;10.482;2022-07-23T01:42:41;16.40;99.90
23683;DHT22;24897;53.514;10.482;2022-07-23T01:48:10;16.40;99.90
23683;DHT22;24897;53.514;10.482;2022-07-23T01:50:54;16.40;99.90
23683;DHT22;24897;53.514;10.482;2022-07-23T01:53:38;16.40;99.90
23683;DHT22;24897;53.514;10.482;2022-07-23T01:56:22;16.60;99.90
23683;DHT22;24897;53.514;10.482;2022-07-23T01:59:06;16.40;99.90
23683;DHT22;24897;53.514;10.482;2022-07-23T02:01:50;16.30;99.90
23683;DHT22;24897;53.514;10.482;2022-07-23T02:07:20;16.70;99.90
23683;DHT22;24897;53.514;10.482;2022-07-23T02:10:05;16.20;99.90
23683;DHT22;24897;53.514;10.482;2022-07-23T02:12:49;16.20;99.90
23683;DHT22;24897;53.514;10.482;2022-07-23T02:15:34;16.10;99.90
23683;DHT22;24897;53.514;10.482;2022-07-23T02:21:02;16.30;99.90
23683;DHT22;24897;53.514;10.482;2022-07-23T02:23:47;16.10;99.90
23683;DHT22;24897;53.514;10.482;2022-07-23T02:26:31;16.50;99.90
23683;DHT22;24897;53.514;10.482;2022-07-23T02:29:18;16.10;99.90
23683;DHT22;24897;53.514;10.482;2022-07-23T02:32:03;16.50;99.90
23683;DHT22;24897;53.514;10.482;2022-07-23T02:34:48;16.10;99.90
23683;DHT22;24897;53.514;10.482;2022-07-23T02:37:32;16.50;99.90
23683;DHT22;24897;53.514;10.482;2022-07-23T02:40:17;16.20;99.90
23683;DHT22;24897;53.514;10.482;2022-07-23T02:43:02;16.10;99.90
23683;DHT22;24897;53.514;10.482;2022-07-23T02:45:46;16.10;99.90
23683;DHT22;24897;53.514;10.482;2022-07-23T02:48:30;16.00;99.90
23683;DHT22;24897;53.514;10.482;2022-07-23T02:51:14;16.10;99.90
23683;DHT22;24897;53.514;10.482;2022-07-23T02:53:58;15.90;99.90
23683;DHT22;24897;53.514;10.482;2022-07-23T02:56:43;15.90;99.90
23683;DHT22;24897;53.514;10.482;2022-07-23T02:59:27;15.80;99.90
23683;DHT22;24897;53.514;10.482;2022-07-23T03:02:11;15.70;99.90
23683;DHT22;24897;53.514;10.482;2022-07-23T03:04:56;15.80;99.90
23683;DHT22;24897;53.514;10.482;2022-07-23T03:07:40;15.70;99.90
23683;DHT22;24897;53.514;10.482;2022-07-23T03:10:24;15.80;99.90
23683;DHT22;24897;53.514;10.482;2022-07-23T03:13:08;15.70;99.90
23683;DHT22;24897;53.514;10.482;2022-07-23T03:15:53;15.60;99.90
23683;DHT22;24897;53.514;10.482;2022-07-23T03:18:37;15.50;99.90
23683;DHT22;24897;53.514;10.482;2022-07-23T03:21:21;15.60;99.90
23683;DHT22;24897;53.514;10.482;2022-07-23T03:24:07;15.40;99.90
23683;DHT22;24897;53.514;10.482;2022-07-23T03:26:52;15.50;99.90
23683;DHT22;24897;53.514;10.482;2022-07-23T03:29:36;15.50;99.90
23683;DHT22;24897;53.514;10.482;2022-07-23T03:32:21;15.50;99.90
23683;DHT22;24897;53.514;10.482;2022-07-23T03:35:06;15.50;99.90
23683;DHT22;24897;53.514;10.482;2022-07-23T03:37:50;15.50;99.90
23683;DHT22;24897;53.514;10.482;2022-07-23T03:40:34;15.50;99.90
23683;DHT22;24897;53.514;10.482;2022-07-23T03:43:18;15.40;99.90
23683;DHT22;24897;53.514;10.482;2022-07-23T03:46:02;15.50;99.90
23683;DHT22;24897;53.514;10.482;2022-07-23T03:48:46;15.40;99.90
23683;DHT22;24897;53.514;10.482;2022-07-23T03:51:30;15.40;99.90
23683;DHT22;24897;53.514;10.482;2022-07-23T03:54:14;16.00;99.90
23683;DHT22;24897;53.514;10.482;2022-07-23T03:56:58;16.10;99.90
23683;DHT22;24897;53.514;10.482;2022-07-23T03:59:42;16.10;99.90
23683;DHT22;24897;53.514;10.482;2022-07-23T04:02:26;16.10;99.90
23683;DHT22;24897;53.514;10.482;2022-07-23T04:05:11;15.00;99.90
23683;DHT22;24897;53.514;10.482;2022-07-23T04:07:55;16.00;99.90
23683;DHT22;24897;53.514;10.482;2022-07-23T04:10:39;15.70;99.90
23683;DHT22;24897;53.514;10.482;2022-07-23T04:13:23;15.90;99.90
23683;DHT22;24897;53.514;10.482;2022-07-23T04:16:08;15.80;99.90
23683;DHT22;24897;53.514;10.482;2022-07-23T04:18:52;15.80;99.90
23683;DHT22;24897;53.514;10.482;2022-07-23T04:21:36;15.80;99.90
23683;DHT22;24897;53.514;10.482;2022-07-23T04:24:20;15.80;99.90
23683;DHT22;24897;53.514;10.482;2022-07-23T04:27:05;15.90;99.90
23683;DHT22;24897;53.514;10.482;2022-07-23T04:29:49;16.00;99.90
23683;DHT22;24897;53.514;10.482;2022-07-23T04:32:33;16.30;99.90
23683;DHT22;24897;53.514;10.482;2022-07-23T04:35:18;16.10;99.90
23683;DHT22;24897;53.514;10.482;2022-07-23T04:38:03;16.10;99.90
23683;DHT22;24897;53.514;10.482;2022-07-23T04:40:47;16.10;99.90
23683;DHT22;24897;53.514;10.482;2022-07-23T04:43:31;16.10;99.90
23683;DHT22;24897;53.514;10.482;2022-07-23T04:46:15;15.50;99.90
23683;DHT22;24897;53.514;10.482;2022-07-23T04:48:59;15.80;99.90
23683;DHT22;24897;53.514;10.482;2022-07-23T04:51:43;15.70;99.90
23683;DHT22;24897;53.514;10.482;2022-07-23T04:54:27;15.80;99.90
23683;DHT22;24897;53.514;10.482;2022-07-23T04:57:11;15.70;99.90
23683;DHT22;24897;53.514;10.482;2022-07-23T04:59:55;15.70;99.90
23683;DHT22;24897;53.514;10.482;2022-07-23T05:02:40;16.10;99.90
23683;DHT22;24897;53.514;10.482;2022-07-23T05:05:24;15.70;99.90
23683;DHT22;24897;53.514;10.482;2022-07-23T05:08:08;15.70;99.90
23683;DHT22;24897;53.514;10.482;2022-07-23T05:10:52;15.60;99.90
23683;DHT22;24897;53.514;10.482;2022-07-23T05:13:36;15.70;99.90
23683;DHT22;24897;53.514;10.482;2022-07-23T05:16:20;15.60;99.90
23683;DHT22;24897;53.514;10.482;2022-07-23T05:19:04;15.80;99.90
23683;DHT22;24897;53.514;10.482;2022-07-23T05:21:48;16.00;99.90
23683;DHT22;24897;53.514;10.482;2022-07-23T05:24:32;15.60;99.90
23683;DHT22;24897;53.514;10.482;2022-07-23T05:27:16;15.60;99.90
23683;DHT22;24897;53.514;10.482;2022-07-23T05:30:01;15.60;99.90
23683;DHT22;24897;53.514;10.482;2022-07-23T05:32:45;15.60;99.90
23683;DHT22;24897;53.514;10.482;2022-07-23T05:35:29;15.50;99.90
23683;DHT22;24897;53.514;10.482;2022-07-23T05:38:13;15.50;99.90
23683;DHT22;24897;53.514;10.482;2022-07-23T05:40:57;15.70;99.90
23683;DHT22;24897;53.514;10.482;2022-07-23T05:43:42;15.50;99.90
23683;DHT22;24897;53.514;10.482;2022-07-23T05:46:26;15.50;99.90
23683;DHT22;24897;53.514;10.482;2022-07-23T05:49:10;15.70;99.90
23683;DHT22;24897;53.514;10.482;2022-07-23T05:51:57;15.50;99.90
23683;DHT22;24897;53.514;10.482;2022-07-23T05:54:42;15.50;99.90
23683;DHT22;24897;53.514;10.482;2022-07-23T05:57:26;15.60;99.90
23683;DHT22;24897;53.514;10.482;2022-07-23T06:00:10;14.50;99.90
23683;DHT22;24897;53.514;10.482;2022-07-23T06:02:55;15.60;99.90
23683;DHT22;24897;53.514;10.482;2022-07-23T06:05:39;15.60;99.90
23683;DHT22;24897;53.514;10.482;2022-07-23T06:08:23;15.80;99.90
23683;DHT22;24897;53.514;10.482;2022-07-23T06:11:08;15.60;99.90
23683;DHT22;24897;53.514;10.482;2022-07-23T06:13:52;15.70;99.90
23683;DHT22;24897;53.514;10.482;2022-07-23T06:16:36;15.70;99.90
23683;DHT22;24897;53.514;10.482;2022-07-23T06:19:20;15.80;99.90
23683;DHT22;24897;53.514;10.482;2022-07-23T06:22:04;15.80;99.90
23683;DHT22;24897;53.514;10.482;2022-07-23T06:24:50;15.80;99.90
23683;DHT22;24897;53.514;10.482;2022-07-23T06:27:35;15.90;99.90
23683;DHT22;24897;53.514;10.482;2022-07-23T06:30:19;16.10;99.90
23683;DHT22;24897;53.514;10.482;2022-07-23T06:33:04;16.90;99.90
23683;DHT22;24897;53.514;10.482;2022-07-23T06:35:48;17.50;99.90
23683;DHT22;24897;53.514;10.482;2022-07-23T06:38:32;18.80;99.90
23683;DHT22;24897;53.514;10.482;2022-07-23T06:41:16;19.90;99.90
23683;DHT22;24897;53.514;10.482;2022-07-23T06:44:00;19.80;99.90
23683;DHT22;24897;53.514;10.482;2022-07-23T06:46:44;19.80;99.90
23683;DHT22;24897;53.514;10.482;2022-07-23T06:49:28;19.20;99.90
23683;DHT22;24897;53.514;10.482;2022-07-23T06:52:12;19.00;99.90
23683;DHT22;24897;53.514;10.482;2022-07-23T06:54:57;18.70;99.90
23683;DHT22;24897;53.514;10.482;2022-07-23T06:57:41;18.20;99.90
23683;DHT22;24897;53.514;10.482;2022-07-23T07:00:25;18.20;99.90
23683;DHT22;24897;53.514;10.482;2022-07-23T07:03:10;18.20;99.90
23683;DHT22;24897;53.514;10.482;2022-07-23T07:05:55;18.60;99.90
23683;DHT22;24897;53.514;10.482;2022-07-23T07:08:41;19.00;99.90
23683;DHT22;24897;53.514;10.482;2022-07-23T07:11:27;18.90;99.90
23683;DHT22;24897;53.514;10.482;2022-07-23T07:14:11;18.80;99.90
23683;DHT22;24897;53.514;10.482;2022-07-23T07:16:55;18.80;99.90
23683;DHT22;24897;53.514;10.482;2022-07-23T07:19:39;18.90;99.90
23683;DHT22;24897;53.514;10.482;2022-07-23T07:22:23;18.90;99.90
23683;DHT22;24897;53.514;10.482;2022-07-23T07:25:08;18.80;99.90
23683;DHT22;24897;53.514;10.482;2022-07-23T07:27:53;18.80;99.90
23683;DHT22;24897;53.514;10.482;2022-07-23T07:30:37;18.90;99.90
23683;DHT22;24897;53.514;10.482;2022-07-23T07:33:21;18.60;99.90
23683;DHT22;24897;53.514;10.482;2022-07-23T07:36:05;18.50;99.90
23683;DHT22;24897;53.514;10.482;2022-07-23T07:38:49;18.40;99.90
23683;DHT22;24897;53.514;10.482;2022-07-23T07:41:34;18.40;99.90
23683;DHT22;24897;53.514;10.482;2022-07-23T07:44:18;18.30;99.90
23683;DHT22;24897;53.514;10.482;2022-07-23T07:47:02;18.20;99.90
23683;DHT22;24897;53.514;10.482;2022-07-23T07:49:46;18.20;99.90
23683;DHT22;24897;53.514;10.482;2022-07-23T07:52:30;18.20;99.90
23683;DHT22;24897;53.514;10.482;2022-07-23T07:55:14;18.40;99.90
23683;DHT22;24897;53.514;10.482;2022-07-23T07:57:58;18.60;99.90
23683;DHT22;24897;53.514;10.482;2022-07-23T08:00:42;18.70;99.90
23683;DHT22;24897;53.514;10.482;2022-07-23T08:03:26;18.60;99.90
23683;DHT22;24897;53.514;10.482;2022-07-23T08:06:10;18.60;99.90
23683;DHT22;24897;53.514;10.482;2022-07-23T08:08:54;18.80;99.90
23683;DHT22;24897;53.514;10.482;2022-07-23T08:11:38;19.20;99.90
23683;DHT22;24897;53.514;10.482;2022-07-23T08:14:22;19.60;99.90
23683;DHT22;24897;53.514;10.482;2022-07-23T08:17:06;19.60;99.90
23683;DHT22;24897;53.514;10.482;2022-07-23T08:19:51;20.10;99.90
23683;DHT22;24897;53.514;10.482;2022-07-23T08:22:47;20.70;99.90
23683;DHT22;24897;53.514;10.482;2022-07-23T08:25:37;20.60;99.90
23683;DHT22;24897;53.514;10.482;2022-07-23T08:28:21;20.40;99.90
23683;DHT22;24897;53.514;10.482;2022-07-23T08:31:06;19.50;99.90
23683;DHT22;24897;53.514;10.482;2022-07-23T08:33:50;18.50;99.90
23683;DHT22;24897;53.514;10.482;2022-07-23T08:36:34;17.80;99.90
23683;DHT22;24897;53.514;10.482;2022-07-23T08:39:18;17.40;99.90
23683;DHT22;24897;53.514;10.482;2022-07-23T08:42:02;17.50;99.90
23683;DHT22;24897;53.514;10.482;2022-07-23T08:44:46;17.80;99.90
23683;DHT22;24897;53.514;10.482;2022-07-23T08:47:31;17.80;99.90
23683;DHT22;24897;53.514;10.482;2022-07-23T08:50:15;18.20;99.90
23683;DHT22;24897;53.514;10.482;2022-07-23T08:53:00;18.40;99.90
23683;DHT22;24897;53.514;10.482;2022-07-23T08:55:46;18.80;99.90
23683;DHT22;24897;53.514;10.482;2022-07-23T08:58:31;19.50;99.90
23683;DHT22;24897;53.514;10.482;2022-07-23T09:01:15;20.40;99.90
23683;DHT22;24897;53.514;10.482;2022-07-23T09:04:01;20.90;99.90
23683;DHT22;24897;53.514;10.482;2022-07-23T09:06:45;20.60;99.90
23683;DHT22;24897;53.514;10.482;2022-07-23T09:09:29;20.40;99.90
23683;DHT22;24897;53.514;10.482;2022-07-23T09:12:14;19.50;99.90
23683;DHT22;24897;53.514;10.482;2022-07-23T09:15:04;19.20;99.90
23683;DHT22;24897;53.514;10.482;2022-07-23T09:17:48;18.80;99.90
23683;DHT22;24897;53.514;10.482;2022-07-23T09:20:33;18.80;99.90
23683;DHT22;24897;53.514;10.482;2022-07-23T09:23:17;18.80;99.90
23683;DHT22;24897;53.514;10.482;2022-07-23T09:26:02;18.70;99.90
23683;DHT22;24897;53.514;10.482;2022-07-23T09:28:57;18.30;99.90
23683;DHT22;24897;53.514;10.482;2022-07-23T09:32:02;17.70;99.90
23683;DHT22;24897;53.514;10.482;2022-07-23T09:34:49;17.50;99.90
23683;DHT22;24897;53.514;10.482;2022-07-23T09:37:34;17.40;99.90
23683;DHT22;24897;53.514;10.482;2022-07-23T09:40:18;17.40;99.90
23683;DHT22;24897;53.514;10.482;2022-07-23T09:43:02;17.70;99.90
23683;DHT22;24897;53.514;10.482;2022-07-23T09:45:47;18.10;99.90
23683;DHT22;24897;53.514;10.482;2022-07-23T09:48:33;18.60;99.90
23683;DHT22;24897;53.514;10.482;2022-07-23T09:51:18;18.90;99.90
23683;DHT22;24897;53.514;10.482;2022-07-23T09:54:35;19.10;99.90
23683;DHT22;24897;53.514;10.482;2022-07-23T09:57:20;19.60;99.90
23683;DHT22;24897;53.514;10.482;2022-07-23T10:00:07;19.60;99.90
23683;DHT22;24897;53.514;10.482;2022-07-23T10:02:53;19.90;99.90
23683;DHT22;24897;53.514;10.482;2022-07-23T10:05:38;20.10;99.90
23683;DHT22;24897;53.514;10.482;2022-07-23T10:08:28;20.50;99.90
23683;DHT22;24897;53.514;10.482;2022-07-23T10:11:12;20.50;99.90
23683;DHT22;24897;53.514;10.482;2022-07-23T10:13:58;20.40;99.90
23683;DHT22;24897;53.514;10.482;2022-07-23T10:16:44;20.30;99.90
23683;DHT22;24897;53.514;10.482;2022-07-23T10:19:28;20.30;99.90
23683;DHT22;24897;53.514;10.482;2022-07-23T10:22:15;20.50;99.90
23683;DHT22;24897;53.514;10.482;2022-07-23T10:28:21;20.10;99.90
23683;DHT22;24897;53.514;10.482;2022-07-23T10:31:26;20.10;99.90
23683;DHT22;24897;53.514;10.482;2022-07-23T10:34:49;20.70;99.90
23683;DHT22;24897;53.514;10.482;2022-07-23T10:37:42;20.90;99.90
23683;DHT22;24897;53.514;10.482;2022-07-23T10:40:30;21.50;99.90
23683;DHT22;24897;53.514;10.482;2022-07-23T10:43:16;21.30;99.90
23683;DHT22;24897;53.514;10.482;2022-07-23T10:46:33;20.80;99.90
23683;DHT22;24897;53.514;10.482;2022-07-23T10:49:32;20.70;99.90
23683;DHT22;24897;53.514;10.482;2022-07-23T10:52:18;20.70;99.90
23683;DHT22;24897;53.514;10.482;2022-07-23T10:57:54;20.10;99.90
23683;DHT22;24897;53.514;10.482;2022-07-23T11:00:38;19.70;99.90
23683;DHT22;24897;53.514;10.482;2022-07-23T11:03:29;19.70;99.90
23683;DHT22;24897;53.514;10.482;2022-07-23T11:06:17;19.70;99.90
23683;DHT22;24897;53.514;10.482;2022-07-23T11:20:34;20.30;99.90
23683;DHT22;24897;53.514;10.482;2022-07-23T11:23:18;20.30;99.90
23683;DHT22;24897;53.514;10.482;2022-07-23T11:26:03;21.50;99.90
23683;DHT22;24897;53.514;10.482;2022-07-23T11:28:48;21.60;99.90
23683;DHT22;24897;53.514;10.482;2022-07-23T11:31:33;21.70;99.90
23683;DHT22;24897;53.514;10.482;2022-07-23T11:34:40;21.40;99.90
23683;DHT22;24897;53.514;10.482;2022-07-23T11:37:38;21.70;99.90
23683;DHT22;24897;53.514;10.482;2022-07-23T11:40:23;21.60;99.90
23683;DHT22;24897;53.514;10.482;2022-07-23T11:43:08;20.50;99.90
23683;DHT22;24897;53.514;10.482;2022-07-23T11:45:57;22.40;99.90
23683;DHT22;24897;53.514;10.482;2022-07-23T11:48:41;21.90;99.90
23683;DHT22;24897;53.514;10.482;2022-07-23T11:51:26;22.10;99.90
23683;DHT22;24897;53.514;10.482;2022-07-23T11:54:11;21.90;99.90
23683;DHT22;24897;53.514;10.482;2022-07-23T11:56:56;21.90;99.90
23683;DHT22;24897;53.514;10.482;2022-07-23T11:59:41;22.30;99.90
23683;DHT22;24897;53.514;10.482;2022-07-23T12:02:26;22.80;99.90
23683;DHT22;24897;53.514;10.482;2022-07-23T12:05:16;22.30;99.90
23683;DHT22;24897;53.514;10.482;2022-07-23T12:08:01;21.80;99.90
23683;DHT22;24897;53.514;10.482;2022-07-23T12:10:46;21.10;99.90
23683;DHT22;24897;53.514;10.482;2022-07-23T12:13:30;20.70;99.90
23683;DHT22;24897;53.514;10.482;2022-07-23T12:16:14;20.60;99.90
23683;DHT22;24897;53.514;10.482;2022-07-23T12:18:58;20.60;99.90
23683;DHT22;24897;53.514;10.482;2022-07-23T12:21:45;21.30;99.90
23683;DHT22;24897;53.514;10.482;2022-07-23T12:24:30;21.40;99.90
23683;DHT22;24897;53.514;10.482;2022-07-23T12:27:15;21.50;99.90
23683;DHT22;24897;53.514;10.482;2022-07-23T12:30:14;21.60;99.90
23683;DHT22;24897;53.514;10.482;2022-07-23T12:32:59;21.60;99.90
23683;DHT22;24897;53.514;10.482;2022-07-23T12:35:46;21.60;99.90
23683;DHT22;24897;53.514;10.482;2022-07-23T12:38:38;21.80;99.90
23683;DHT22;24897;53.514;10.482;2022-07-23T12:41:22;22.20;99.90
23683;DHT22;24897;53.514;10.482;2022-07-23T12:44:16;22.60;99.90
23683;DHT22;24897;53.514;10.482;2022-07-23T12:47:04;22.60;99.90
23683;DHT22;24897;53.514;10.482;2022-07-23T12:49:48;22.90;99.90
23683;DHT22;24897;53.514;10.482;2022-07-23T12:52:33;22.90;99.90
23683;DHT22;24897;53.514;10.482;2022-07-23T12:55:29;22.50;99.90
23683;DHT22;24897;53.514;10.482;2022-07-23T12:58:19;22.00;99.90
23683;DHT22;24897;53.514;10.482;2022-07-23T13:01:05;21.60;99.90
23683;DHT22;24897;53.514;10.482;2022-07-23T13:09:33;20.70;99.90
23683;DHT22;24897;53.514;10.482;2022-07-23T13:12:18;20.70;99.90
23683;DHT22;24897;53.514;10.482;2022-07-23T13:15:02;20.50;99.90
23683;DHT22;24897;53.514;10.482;2022-07-23T13:17:46;20.40;99.90
23683;DHT22;24897;53.514;10.482;2022-07-23T13:20:32;20.50;99.90
23683;DHT22;24897;53.514;10.482;2022-07-23T13:23:18;20.60;99.90
23683;DHT22;24897;53.514;10.482;2022-07-23T13:26:03;20.90;99.90
23683;DHT22;24897;53.514;10.482;2022-07-23T13:28:47;20.90;99.90
23683;DHT22;24897;53.514;10.482;2022-07-23T13:31:32;20.90;99.90
23683;DHT22;24897;53.514;10.482;2022-07-23T13:34:17;21.00;99.90
23683;DHT22;24897;53.514;10.482;2022-07-23T13:37:01;20.90;99.90
23683;DHT22;24897;53.514;10.482;2022-07-23T13:39:45;20.70;99.90
23683;DHT22;24897;53.514;10.482;2022-07-23T13:42:29;20.70;99.90
23683;DHT22;24897;53.514;10.482;2022-07-23T13:45:14;20.70;99.90
23683;DHT22;24897;53.514;10.482;2022-07-23T13:47:59;20.90;99.90
23683;DHT22;24897;53.514;10.482;2022-07-23T13:50:44;20.90;99.90
23683;DHT22;24897;53.514;10.482;2022-07-23T13:53:29;20.60;99.90
23683;DHT22;24897;53.514;10.482;2022-07-23T13:56:13;20.60;99.90
23683;DHT22;24897;53.514;10.482;2022-07-23T13:58:57;20.70;99.90
23683;DHT22;24897;53.514;10.482;2022-07-23T14:01:41;20.70;99.90
23683;DHT22;24897;53.514;10.482;2022-07-23T14:04:25;20.50;99.90
23683;DHT22;24897;53.514;10.482;2022-07-23T14:07:10;20.50;99.90
23683;DHT22;24897;53.514;10.482;2022-07-23T14:09:54;20.60;99.90
23683;DHT22;24897;53.514;10.482;2022-07-23T14:12:38;20.50;99.90
23683;DHT22;24897;53.514;10.482;2022-07-23T14:15:25;20.60;99.90
23683;DHT22;24897;53.514;10.482;2022-07-23T14:18:10;20.80;99.90
23683;DHT22;24897;53.514;10.482;2022-07-23T14:20:54;20.80;99.90
23683;DHT22;24897;53.514;10.482;2022-07-23T14:23:38;20.80;99.90
23683;DHT22;24897;53.514;10.482;2022-07-23T14:26:22;20.90;99.90
23683;DHT22;24897;53.514;10.482;2022-07-23T14:29:07;21.00;99.90
23683;DHT22;24897;53.514;10.482;2022-07-23T14:31:53;20.90;99.90
23683;DHT22;24897;53.514;10.482;2022-07-23T14:34:37;21.00;99.90
23683;DHT22;24897;53.514;10.482;2022-07-23T14:37:22;21.10;99.90
23683;DHT22;24897;53.514;10.482;2022-07-23T14:40:06;21.30;99.90
23683;DHT22;24897;53.514;10.482;2022-07-23T14:42:51;21.20;99.90
23683;DHT22;24897;53.514;10.482;2022-07-23T14:45:35;21.00;99.90
23683;DHT22;24897;53.514;10.482;2022-07-23T14:48:19;20.90;99.90
23683;DHT22;24897;53.514;10.482;2022-07-23T14:51:03;20.80;99.90
23683;DHT22;24897;53.514;10.482;2022-07-23T14:53:48;20.80;99.90
23683;DHT22;24897;53.514;10.482;2022-07-23T14:56:32;20.50;99.90
23683;DHT22;24897;53.514;10.482;2022-07-23T14:59:17;20.50;99.90
23683;DHT22;24897;53.514;10.482;2022-07-23T15:02:02;20.70;99.90
23683;DHT22;24897;53.514;10.482;2022-07-23T15:04:47;20.90;99.90
23683;DHT22;24897;53.514;10.482;2022-07-23T15:07:31;20.80;99.90
23683;DHT22;24897;53.514;10.482;2022-07-23T15:10:15;20.60;99.90
23683;DHT22;24897;53.514;10.482;2022-07-23T15:12:59;20.60;99.90
23683;DHT22;24897;53.514;10.482;2022-07-23T15:15:43;20.70;99.90
23683;DHT22;24897;53.514;10.482;2022-07-23T15:18:28;20.70;99.90
23683;DHT22;24897;53.514;10.482;2022-07-23T15:21:12;20.80;99.90
23683;DHT22;24897;53.514;10.482;2022-07-23T15:23:57;20.80;99.90
23683;DHT22;24897;53.514;10.482;2022-07-23T15:26:44;20.80;99.90
23683;DHT22;24897;53.514;10.482;2022-07-23T15:29:29;20.90;99.90
23683;DHT22;24897;53.514;10.482;2022-07-23T15:32:13;20.60;99.90
23683;DHT22;24897;53.514;10.482;2022-07-23T15:34:58;20.60;99.90
23683;DHT22;24897;53.514;10.482;2022-07-23T15:37:42;20.50;99.90
23683;DHT22;24897;53.514;10.482;2022-07-23T15:40:26;20.50;99.90
23683;DHT22;24897;53.514;10.482;2022-07-23T15:43:10;20.60;99.90
23683;DHT22;24897;53.514;10.482;2022-07-23T15:45:55;20.70;99.90
23683;DHT22;24897;53.514;10.482;2022-07-23T15:48:40;20.80;99.90
23683;DHT22;24897;53.514;10.482;2022-07-23T15:51:24;20.80;99.90
23683;DHT22;24897;53.514;10.482;2022-07-23T15:54:08;21.00;99.90
23683;DHT22;24897;53.514;10.482;2022-07-23T15:56:53;21.20;99.90
23683;DHT22;24897;53.514;10.482;2022-07-23T15:59:37;21.10;99.90
23683;DHT22;24897;53.514;10.482;2022-07-23T16:02:22;21.00;99.90
23683;DHT22;24897;53.514;10.482;2022-07-23T16:05:07;21.40;99.90
23683;DHT22;24897;53.514;10.482;2022-07-23T16:10:55;21.20;99.90
23683;DHT22;24897;53.514;10.482;2022-07-23T16:16:27;20.50;99.90
23683;DHT22;24897;53.514;10.482;2022-07-23T16:21:56;20.70;99.90
23683;DHT22;24897;53.514;10.482;2022-07-23T16:27:25;20.50;99.90
23683;DHT22;24897;53.514;10.482;2022-07-23T16:30:12;20.10;99.90
23683;DHT22;24897;53.514;10.482;2022-07-23T16:35:41;19.80;99.90
23683;DHT22;24897;53.514;10.482;2022-07-23T16:38:26;20.10;99.90
23683;DHT22;24897;53.514;10.482;2022-07-23T16:43:54;21.00;99.90
23683;DHT22;24897;53.514;10.482;2022-07-23T16:46:39;20.30;99.90
23683;DHT22;24897;53.514;10.482;2022-07-23T16:49:23;20.30;99.90
23683;DHT22;24897;53.514;10.482;2022-07-23T16:52:07;20.20;99.90
23683;DHT22;24897;53.514;10.482;2022-07-23T16:54:51;20.30;99.90
23683;DHT22;24897;53.514;10.482;2022-07-23T16:57:36;21.00;99.90
23683;DHT22;24897;53.514;10.482;2022-07-23T17:00:20;20.40;99.90
23683;DHT22;24897;53.514;10.482;2022-07-23T17:03:04;20.40;99.90
23683;DHT22;24897;53.514;10.482;2022-07-23T17:05:48;20.50;99.90
23683;DHT22;24897;53.514;10.482;2022-07-23T17:08:32;20.50;99.90
23683;DHT22;24897;53.514;10.482;2022-07-23T17:11:16;20.70;99.90
23683;DHT22;24897;53.514;10.482;2022-07-23T17:14:01;20.60;99.90
23683;DHT22;24897;53.514;10.482;2022-07-23T17:19:30;20.60;99.90
23683;DHT22;24897;53.514;10.482;2022-07-23T17:22:14;20.40;99.90
23683;DHT22;24897;53.514;10.482;2022-07-23T17:24:59;20.50;99.90
23683;DHT22;24897;53.514;10.482;2022-07-23T17:27:44;20.60;99.90
23683;DHT22;24897;53.514;10.482;2022-07-23T17:33:14;20.50;99.90
23683;DHT22;24897;53.514;10.482;2022-07-23T17:35:58;20.40;99.90
23683;DHT22;24897;53.514;10.482;2022-07-23T17:38:42;20.30;99.90
23683;DHT22;24897;53.514;10.482;2022-07-23T17:41:26;20.10;99.90
23683;DHT22;24897;53.514;10.482;2022-07-23T17:44:11;20.20;99.90
23683;DHT22;24897;53.514;10.482;2022-07-23T17:46:55;20.00;99.90
23683;DHT22;24897;53.514;10.482;2022-07-23T17:49:39;19.70;99.90
23683;DHT22;24897;53.514;10.482;2022-07-23T17:52:23;19.90;99.90
23683;DHT22;24897;53.514;10.482;2022-07-23T17:55:08;19.80;99.90
23683;DHT22;24897;53.514;10.482;2022-07-23T17:57:53;19.70;99.90
23683;DHT22;24897;53.514;10.482;2022-07-23T18:00:38;19.80;99.90
23683;DHT22;24897;53.514;10.482;2022-07-23T18:03:22;19.70;99.90
23683;DHT22;24897;53.514;10.482;2022-07-23T18:06:07;19.70;99.90
23683;DHT22;24897;53.514;10.482;2022-07-23T18:08:55;19.50;99.90